Time;durP1;ratioP1;P1;durP2;ratioP2;P2;SDS_P1;SDS_P2;PMS_P1;PMS_P2;Temp;Humidity;BMP_temperature;BMP_pressure;BME280_temperature;BME280_humidity;BME280_pressure;Samples;Min_cycle;Max_cycle;Signal;HPM_P1;HPM_P2
2024/04/25 00:03:21;;;;;;;64.10;37.60;;;;;;;4.59;100.00;97953.08;271302;1283;23252;-83
2024/04/25 00:25:04;;;;;;;48.60;30.90;;;;;;;4.60;100.00;97950.45;271358;1275;23090;-84
2024/04/25 00:39:07;;;;;;;53.00;32.70;;;;;;;4.61;100.00;97956.05;273635;1271;22325;-83
2024/04/25 01:16:34;;;;;;;48.10;30.10;;;;;;;4.56;100.00;97972.91;270575;1272;22629;-83
2024/04/25 01:23:26;;;;;;;49.80;30.50;;;;;;;4.55;100.00;97974.52;270877;1272;23137;-83
2024/04/25 01:29:29;;;;;;;49.90;31.50;;;;;;;4.57;100.00;97975.80;272727;1273;23379;-85
2024/04/25 01:44:17;;;;;;;61.10;37.10;;;;;;;4.58;100.00;97981.48;272863;1278;22836;-84
2024/04/25 01:50:18;;;;;;;56.40;36.80;;;;;;;4.55;100.00;97980.25;271866;1270;22314;-83
2024/04/25 01:57:00;;;;;;;58.30;36.10;;;;;;;4.50;100.00;97979.77;272122;1269;22438;-84
2024/04/25 02:03:02;;;;;;;53.90;36.30;;;;;;;4.47;100.00;97980.18;272940;1257;133476;-86
2024/04/25 02:09:09;;;;;;;53.80;36.50;;;;;;;4.51;100.00;97980.17;273521;1268;23568;-84
2024/04/25 02:16:04;;;;;;;50.50;34.30;;;;;;;4.53;100.00;97975.26;273928;1269;23116;-84
2024/04/25 02:29:24;;;;;;;44.70;26.50;;;;;;;4.54;100.00;97976.44;274074;1269;22239;-85
2024/04/25 02:35:30;;;;;;;38.20;24.30;;;;;;;4.58;100.00;97975.65;273535;1269;22254;-85
2024/04/25 02:42:01;;;;;;;32.20;22.10;;;;;;;4.53;100.00;97977.35;273996;1269;22507;-85
2024/04/25 02:48:03;;;;;;;34.00;22.60;;;;;;;4.52;100.00;97981.84;273641;1260;22248;-84
2024/04/25 02:54:27;;;;;;;32.60;21.40;;;;;;;4.56;100.00;97981.28;271464;1269;22562;-85
2024/04/25 03:00:49;;;;;;;27.10;17.80;;;;;;;4.52;100.00;97980.52;271344;1269;22635;-85
2024/04/25 03:06:50;;;;;;;27.00;18.00;;;;;;;4.48;100.00;97987.70;271224;1269;22601;-85
2024/04/25 03:13:12;;;;;;;30.90;19.60;;;;;;;4.45;100.00;97988.90;273671;1268;22237;-85
2024/04/25 03:19:14;;;;;;;27.10;18.30;;;;;;;4.42;100.00;97994.88;271320;1256;22829;-84
2024/04/25 03:25:15;;;;;;;31.10;19.80;;;;;;;4.44;100.00;97998.55;270286;1269;22614;-85
2024/04/25 03:31:18;;;;;;;25.20;16.80;;;;;;;4.47;100.00;98004.02;272996;1269;23321;-84
2024/04/25 03:37:27;;;;;;;29.80;19.80;;;;;;;4.46;100.00;98006.87;270455;1269;22555;-85
2024/04/25 03:43:49;;;;;;;27.90;18.30;;;;;;;4.47;100.00;98013.24;270431;1269;24310;-84
2024/04/25 03:49:51;;;;;;;29.60;19.50;;;;;;;4.45;100.00;98018.23;270195;1269;23946;-84
2024/04/25 03:56:01;;;;;;;36.70;22.00;;;;;;;4.46;100.00;98023.91;271458;1252;22274;-85
2024/04/25 04:02:02;;;;;;;39.00;24.10;;;;;;;4.49;100.00;98029.23;270360;1269;23821;-84
2024/04/25 04:08:04;;;;;;;42.90;28.00;;;;;;;4.51;100.00;98033.61;274112;1269;22298;-83
2024/04/25 04:14:27;;;;;;;40.60;26.30;;;;;;;4.52;100.00;98036.10;273800;1267;22300;-84
2024/04/25 04:20:30;;;;;;;40.80;26.00;;;;;;;4.56;100.00;98036.73;273742;1269;23785;-85
2024/04/25 04:26:52;;;;;;;44.90;26.80;;;;;;;4.59;100.00;98048.38;274027;1270;22249;-85
2024/04/25 04:32:53;;;;;;;46.50;28.30;;;;;;;4.62;100.00;98057.37;273185;1268;22370;-84
2024/04/25 04:39:22;;;;;;;47.70;28.20;;;;;;;4.66;100.00;98065.42;273968;1270;22269;-84
2024/04/25 04:45:25;;;;;;;50.80;29.50;;;;;;;4.70;100.00;98069.83;273862;1269;22744;-83
2024/04/25 04:51:29;;;;;;;45.40;28.50;;;;;;;4.76;100.00;98072.98;273976;1269;23106;-85
2024/04/25 04:57:53;;;;;;;48.40;28.80;;;;;;;4.84;100.00;98082.65;273676;1269;22240;-84
2024/04/25 05:04:10;;;;;;;45.70;29.60;;;;;;;4.96;100.00;98088.52;272358;1269;23809;-84
2024/04/25 05:11:03;;;;;;;46.20;29.50;;;;;;;5.04;100.00;98090.70;273422;1268;22264;-84
2024/04/25 05:17:52;;;;;;;46.70;30.30;;;;;;;5.10;100.00;98088.70;273913;1270;22399;-84
2024/04/25 05:24:34;;;;;;;46.10;28.60;;;;;;;5.23;100.00;98094.91;273648;1271;23388;-84
2024/04/25 05:30:55;;;;;;;46.60;29.30;;;;;;;5.37;100.00;98096.48;273769;1270;22277;-84
2024/04/25 05:37:38;;;;;;;46.40;29.70;;;;;;;5.56;100.00;98104.47;273820;1269;22232;-83
2024/04/25 05:44:00;;;;;;;41.80;26.90;;;;;;;5.67;100.00;98102.48;273948;1269;22258;-84
2024/04/25 05:50:23;;;;;;;40.00;26.40;;;;;;;5.73;100.00;98107.93;273352;1269;22414;-84
2024/04/25 05:56:59;;;;;;;35.90;23.10;;;;;;;5.77;100.00;98117.06;273923;1272;22246;-84
2024/04/25 06:03:01;;;;;;;31.40;21.30;;;;;;;5.70;100.00;98111.84;273997;1269;23069;-84
2024/04/25 06:09:03;;;;;;;30.30;20.80;;;;;;;5.78;100.00;98116.95;271231;1269;22780;-84
2024/04/25 06:15:07;;;;;;;26.30;18.60;;;;;;;5.99;100.00;98117.66;271242;1269;22581;-82
2024/04/25 06:21:53;;;;;;;25.90;19.70;;;;;;;6.22;100.00;98120.73;271117;1269;22776;-82
2024/04/25 06:28:15;;;;;;;26.00;18.50;;;;;;;6.56;100.00;98120.10;271373;1269;22502;-83
2024/04/25 06:35:02;;;;;;;22.60;16.00;;;;;;;6.81;100.00;98115.52;271558;1269;22531;-82
2024/04/25 06:41:47;;;;;;;17.40;13.00;;;;;;;6.86;100.00;98115.42;273827;1269;22240;-82
2024/04/25 06:47:56;;;;;;;18.70;13.10;;;;;;;6.78;100.00;98116.25;271369;1269;22544;-82
2024/04/25 06:54:01;;;;;;;12.40;10.10;;;;;;;6.81;100.00;98118.08;272030;1269;23006;-83
2024/04/25 07:00:03;;;;;;;16.40;12.20;;;;;;;6.86;100.00;98123.49;273823;1269;22355;-82
2024/04/25 07:06:48;;;;;;;17.00;11.60;;;;;;;7.01;100.00;98128.50;273768;1269;22414;-83
2024/04/25 07:13:11;;;;;;;19.00;12.70;;;;;;;7.40;100.00;98132.26;273970;1270;23710;-82
2024/04/25 07:19:34;;;;;;;15.70;12.20;;;;;;;7.61;100.00;98133.38;270770;1269;23771;-82
2024/04/25 07:26:17;;;;;;;14.60;10.40;;;;;;;7.96;100.00;98132.89;271406;1263;22268;-82
2024/04/25 07:32:39;;;;;;;13.90;9.90;;;;;;;8.14;100.00;98141.36;273078;1259;22346;-83
2024/04/25 07:39:02;;;;;;;15.30;9.50;;;;;;;8.33;100.00;98145.40;273816;1269;22357;-83
2024/04/25 07:45:04;;;;;;;13.10;10.00;;;;;;;8.62;100.00;98152.67;272695;1269;22361;-82
2024/04/25 07:51:48;;;;;;;13.10;9.30;;;;;;;9.09;100.00;98150.84;273833;1269;22264;-82
2024/04/25 07:58:09;;;;;;;13.70;10.10;;;;;;;9.46;100.00;98150.88;273597;1268;23186;-82
2024/04/25 08:04:13;;;;;;;12.80;10.10;;;;;;;9.42;100.00;98147.74;273666;1266;22296;-84
2024/04/25 08:10:21;;;;;;;11.50;8.70;;;;;;;9.77;100.00;98153.03;274016;1260;22257;-82
2024/04/25 08:16:23;;;;;;;11.50;9.20;;;;;;;10.12;100.00;98159.77;273390;1268;22376;-82
2024/04/25 08:22:45;;;;;;;11.40;8.30;;;;;;;10.34;100.00;98156.94;273943;1269;22254;-82
2024/04/25 08:29:11;;;;;;;13.50;10.50;;;;;;;10.63;100.00;98155.26;273425;1269;22287;-82
2024/04/25 08:35:33;;;;;;;11.60;9.30;;;;;;;10.66;100.00;98155.95;273080;1269;22579;-82
2024/04/25 08:42:11;;;;;;;9.70;8.10;;;;;;;10.34;99.36;98156.94;271546;1268;22506;-83
2024/04/25 08:48:53;;;;;;;13.40;9.60;;;;;;;10.27;99.50;98159.23;273705;1269;22254;-82
2024/04/25 08:55:35;;;;;;;11.70;8.90;;;;;;;10.42;99.89;98148.88;273647;1269;22247;-81
2024/04/25 09:01:59;;;;;;;12.40;9.10;;;;;;;10.95;98.22;98142.94;273923;1270;22558;-81
2024/04/25 09:08:28;;;;;;;;;;;;;;;;;;;;;
2024/04/25 09:14:42;;;;;;;11.50;9.00;;;;;;;11.29;94.13;98152.17;272947;1269;22453;-82
2024/04/25 09:20:44;;;;;;;10.00;8.20;;;;;;;11.75;93.48;98152.55;273447;1269;22364;-83
2024/04/25 09:26:46;;;;;;;11.00;9.50;;;;;;;12.46;92.78;98152.80;273940;1259;22239;-83
2024/04/25 09:32:48;;;;;;;10.40;8.00;;;;;;;13.36;92.21;98152.55;273305;1269;22343;-82
2024/04/25 09:38:52;;;;;;;9.70;7.90;;;;;;;13.81;89.19;98153.20;273832;1272;22225;-83
2024/04/25 09:45:35;;;;;;;11.10;8.50;;;;;;;14.23;88.18;98150.96;274000;1272;22255;-84
2024/04/25 09:52:14;;;;;;;9.20;6.90;;;;;;;15.14;85.52;98148.72;273811;1269;22233;-83
2024/04/25 09:58:50;;;;;;;9.90;7.10;;;;;;;15.85;83.06;98150.89;273766;1270;22813;-84
2024/04/25 10:04:54;;;;;;;7.30;5.80;;;;;;;16.37;81.87;98146.47;271821;1264;22494;-83
2024/04/25 10:10:55;;;;;;;6.60;5.90;;;;;;;15.42;78.48;98143.85;273561;1269;22517;-83
2024/04/25 10:16:57;;;;;;;9.10;5.80;;;;;;;14.55;76.52;98146.41;271806;1269;23355;-83
2024/04/25 10:23:13;;;;;;;;;;;;;;;;;;;;;
2024/04/25 10:29:31;;;;;;;9.10;5.10;;;;;;;13.74;75.21;98149.04;272384;1269;22532;-83
2024/04/25 10:35:37;;;;;;;10.30;6.30;;;;;;;13.46;74.61;98142.23;272710;1269;22407;-84
2024/04/25 10:42:22;;;;;;;10.70;7.00;;;;;;;14.27;73.37;98142.46;273252;1269;23081;-83
2024/04/25 10:49:06;;;;;;;;;;;;;;;;;;;;;
2024/04/25 10:55:14;;;;;;;11.10;5.80;;;;;;;15.14;69.09;98140.83;273337;1267;22266;-83
2024/04/25 11:01:26;;;;;;;7.20;5.80;;;;;;;14.17;68.59;98146.24;273798;1275;22263;-83
2024/04/25 11:07:43;;;;;;;7.40;5.60;;;;;;;13.71;70.02;98144.00;273841;1269;23306;-83
2024/04/25 11:13:46;;;;;;;7.40;6.00;;;;;;;13.33;69.34;98146.50;273287;1269;485187;-83
2024/04/25 11:20:23;;;;;;;8.50;5.30;;;;;;;13.51;71.47;98150.48;273601;1272;23333;-83
2024/04/25 11:26:25;;;;;;;6.40;4.90;;;;;;;13.80;69.90;98150.69;270507;1269;25075;-83
2024/04/25 11:32:28;;;;;;;5.30;4.60;;;;;;;14.16;69.62;98153.28;272191;1269;23589;-84
2024/04/25 11:38:30;;;;;;;7.30;4.50;;;;;;;14.73;69.37;98157.08;271571;1269;22259;-85
2024/04/25 11:44:47;;;;;;;6.40;5.00;;;;;;;15.16;65.39;98148.53;272557;1269;22559;-84
2024/04/25 11:51:18;;;;;;;6.60;4.10;;;;;;;14.55;66.78;98146.38;273186;1269;22260;-82
2024/04/25 11:58:02;;;;;;;6.20;4.60;;;;;;;14.33;66.38;98152.70;273258;1269;23268;-83
2024/04/25 12:04:25;;;;;;;7.20;5.10;;;;;;;14.10;65.06;98159.66;273684;1269;22334;-83
2024/04/25 12:11:08;;;;;;;5.40;4.70;;;;;;;13.71;64.72;98158.69;273391;1269;22428;-83
2024/04/25 12:17:39;;;;;;;5.60;4.80;;;;;;;13.47;63.94;98160.52;272788;1269;22244;-83
2024/04/25 12:23:41;;;;;;;8.30;4.80;;;;;;;13.82;63.77;98151.76;273548;1269;24222;-82
2024/04/25 12:30:03;;;;;;;7.70;5.10;;;;;;;13.87;62.95;98143.83;273117;1267;22898;-82
2024/04/25 12:36:28;;;;;;;6.00;4.40;;;;;;;13.78;63.34;98144.83;273542;1269;22268;-82
2024/04/25 12:42:50;;;;;;;6.90;5.10;;;;;;;13.61;61.46;98143.83;273460;1269;23082;-82
2024/04/25 12:48:53;;;;;;;7.70;5.10;;;;;;;13.61;60.53;98142.41;273863;1268;22839;-82
2024/04/25 12:55:15;;;;;;;6.30;3.90;;;;;;;13.60;60.92;98135.67;273713;1272;22273;-82
2024/04/25 13:01:24;;;;;;;6.00;4.20;;;;;;;13.65;60.89;98131.75;273863;1269;22245;-80
2024/04/25 13:07:47;;;;;;;3.20;2.80;;;;;;;13.82;58.86;98125.52;273332;1269;22194;-82
2024/04/25 13:13:51;;;;;;;5.20;3.60;;;;;;;14.19;59.73;98124.99;273395;1270;22612;-83
2024/04/25 13:19:53;;;;;;;5.90;3.40;;;;;;;14.24;57.59;98125.08;271266;1269;23575;-82
